createdAt,value
2019-05-10T00:03:06.216Z,94903.26
2019-05-10T00:08:22.056Z,94902.62
2019-05-10T00:13:26.849Z,94897.20
2019-05-10T00:18:23.884Z,94905.70
2019-05-10T00:23:22.729Z,94904.80
2019-05-10T00:28:19.798Z,94905.67
2019-05-10T00:33:16.871Z,94905.16
2019-05-10T00:38:13.833Z,94898.08
2019-05-10T00:43:10.801Z,94897.34
2019-05-10T00:48:07.735Z,94899.75
2019-05-10T00:53:05.085Z,94899.48
2019-05-10T00:58:02.017Z,94901.47
2019-05-10T01:02:59.020Z,94908.03
2019-05-10T01:07:56.049Z,94903.52
2019-05-10T01:12:53.045Z,94907.41
2019-05-10T01:17:50.111Z,94903.83
2019-05-10T01:22:47.064Z,94905.70
2019-05-10T01:27:44.120Z,94902.20
2019-05-10T01:32:41.645Z,94906.06
2019-05-10T01:37:38.679Z,94908.75
2019-05-10T01:42:35.639Z,94908.17
2019-05-10T01:47:32.585Z,94908.34
2019-05-10T01:52:29.686Z,94916.09
2019-05-10T01:57:26.649Z,94915.05
2019-05-10T02:02:23.721Z,94914.59
2019-05-10T02:07:20.674Z,94914.28
2019-05-10T02:12:19.832Z,94909.84
2019-05-10T02:17:16.787Z,94915.42
2019-05-10T02:22:15.906Z,94917.53
2019-05-10T02:27:12.988Z,94923.39
2019-05-10T02:32:10.512Z,94933.09
2019-05-10T02:37:07.473Z,94927.39
2019-05-10T02:42:04.678Z,94932.78
2019-05-10T02:47:01.717Z,94936.49
2019-05-10T02:51:58.803Z,94939.27
2019-05-10T02:56:56.260Z,94944.31
2019-05-10T03:01:55.747Z,94950.55
2019-05-10T03:07:00.662Z,94949.98
2019-05-10T03:12:12.342Z,94958.45
2019-05-10T03:17:12.591Z,94950.24
2019-05-10T03:22:09.638Z,94955.76
2019-05-10T03:27:06.767Z,94963.52
2019-05-10T03:32:03.858Z,94961.92
2019-05-10T03:37:00.955Z,94965.75
2019-05-10T03:41:58.008Z,94966.48
2019-05-10T03:46:55.043Z,94970.27
2019-05-10T03:51:54.043Z,94974.59
2019-05-10T03:57:09.241Z,94965.23
2019-05-10T04:01:50.034Z,94962.83
2019-05-10T04:06:47.157Z,94966.35
2019-05-10T04:11:46.079Z,94979.69
2019-05-10T04:16:44.423Z,94972.88
2019-05-10T04:21:41.644Z,94970.77
2019-05-10T04:26:38.739Z,94979.94
2019-05-10T04:31:36.299Z,94978.96
2019-05-10T04:36:35.148Z,94987.13
2019-05-10T04:41:32.164Z,94990.52
2019-05-10T04:46:31.134Z,94988.64
2019-05-10T04:51:28.174Z,94991.80
2019-05-10T04:56:25.209Z,94989.30
2019-05-10T05:01:22.299Z,94988.06
2019-05-10T05:06:21.313Z,94992.56
2019-05-10T05:11:19.924Z,94992.06
2019-05-10T05:16:16.991Z,94998.18
2019-05-10T05:21:13.949Z,94998.57
2019-05-10T05:26:10.945Z,95004.68
2019-05-10T05:31:07.937Z,95003.44
2019-05-10T05:36:05.939Z,95009.05
2019-05-10T05:41:02.980Z,95010.59
2019-05-10T05:46:14.004Z,95017.08
2019-05-10T05:51:09.543Z,95017.56
2019-05-10T05:56:12.680Z,95019.97
2019-05-10T06:01:05.931Z,95018.70
2019-05-10T06:06:15.262Z,95024.57
2019-05-10T06:11:04.688Z,95024.47
2019-05-10T06:16:06.250Z,95026.14
2019-05-10T06:21:00.758Z,95032.50
2019-05-10T06:26:00.673Z,95038.77
2019-05-10T06:31:04.982Z,95034.30
2019-05-10T06:36:02.095Z,95039.96
2019-05-10T06:41:01.322Z,95038.20
2019-05-10T06:45:58.496Z,95043.10
2019-05-10T06:50:55.514Z,95035.45
2019-05-10T06:55:56.171Z,95039.61
2019-05-10T07:00:53.138Z,95040.72
2019-05-10T07:05:53.927Z,95049.00
2019-05-10T07:10:52.774Z,95049.59
2019-05-10T07:15:58.259Z,95057.97
2019-05-10T07:20:55.307Z,95054.84
2019-05-10T07:25:54.208Z,95065.20
2019-05-10T07:30:51.289Z,95052.84
2019-05-10T07:35:48.736Z,95056.30
2019-05-10T07:40:47.728Z,95059.72
2019-05-10T07:45:46.917Z,95071.52
2019-05-10T07:50:49.617Z,95073.77
2019-05-10T07:55:43.027Z,95082.78
2019-05-10T08:00:48.096Z,95080.14
2019-05-10T08:05:46.171Z,95084.54
2019-05-10T08:10:45.648Z,95091.38
2019-05-10T08:15:44.085Z,95103.91
2019-05-10T08:20:53.929Z,95097.70
2019-05-10T08:25:47.360Z,95110.52
2019-05-10T08:30:51.854Z,95112.47
2019-05-10T08:35:52.461Z,95116.62
2019-05-10T08:40:48.654Z,95121.56
2019-05-10T08:45:49.426Z,95127.01
2019-05-10T08:50:57.581Z,95129.31
2019-05-10T08:55:58.341Z,95142.45
2019-05-10T09:01:16.448Z,95145.63
2019-05-10T09:06:10.777Z,95147.56
2019-05-10T09:11:06.439Z,95147.48
2019-05-10T09:16:03.240Z,95148.58
2019-05-10T09:21:10.572Z,95154.19
2019-05-10T09:26:10.179Z,95160.37
2019-05-10T09:31:18.608Z,95163.45
2019-05-10T09:36:09.517Z,95165.70
2019-05-10T09:41:09.204Z,95164.59
2019-05-10T09:46:14.870Z,95176.55
2019-05-10T09:51:13.761Z,95170.20
2019-05-10T09:56:17.322Z,95173.06
2019-05-10T10:01:20.704Z,95176.36
2019-05-10T10:06:18.042Z,95177.78
2019-05-10T10:11:18.720Z,95180.30
2019-05-10T10:16:20.710Z,95181.73
2019-05-10T10:21:30.513Z,95174.48
2019-05-10T10:26:22.322Z,95181.21
2019-05-10T10:31:29.564Z,95180.07
2019-05-10T10:36:20.731Z,95183.91
2019-05-10T10:41:25.906Z,95185.49
2019-05-10T10:46:19.745Z,95187.39
2019-05-10T10:51:18.027Z,95192.20
2019-05-10T10:56:19.019Z,95183.17
2019-05-10T11:01:21.379Z,95188.12
2019-05-10T11:06:15.516Z,95194.13
2019-05-10T11:11:12.657Z,95192.91
2019-05-10T11:16:15.469Z,95198.16
2019-05-10T11:21:08.602Z,95191.72
2019-05-10T11:26:10.872Z,95188.55
2019-05-10T11:31:11.391Z,95189.03
2019-05-10T11:36:10.950Z,95182.85
2019-05-10T11:41:13.639Z,95196.83
2019-05-10T11:46:11.722Z,95195.77
2019-05-10T11:51:15.886Z,95196.88
2019-05-10T11:56:26.799Z,95190.17
2019-05-10T12:01:22.252Z,95180.95
2019-05-10T12:06:22.646Z,95188.78
2019-05-10T12:16:21.305Z,95193.83
2019-05-10T12:21:17.475Z,95186.92
2019-05-10T12:26:49.398Z,95188.72
2019-05-10T12:27:12.667Z,95193.46
2019-05-10T12:31:17.022Z,95193.19
2019-05-10T12:36:25.495Z,95183.67
2019-05-10T12:41:16.541Z,95182.86
2019-05-10T12:46:13.682Z,95174.31
2019-05-10T12:51:15.197Z,95173.25
2019-05-10T12:56:10.084Z,95174.21
2019-05-10T13:01:08.803Z,95177.55
2019-05-10T13:06:10.360Z,95178.08
2019-05-10T13:11:07.538Z,95180.77
2019-05-10T13:16:09.497Z,95177.28
2019-05-10T13:21:13.582Z,95171.53
2019-05-10T13:26:12.361Z,95176.25
2019-05-10T13:31:15.227Z,95179.09
2019-05-10T13:36:12.293Z,95172.98
2019-05-10T13:41:17.987Z,95167.22
2019-05-10T13:46:17.672Z,95179.37
2019-05-10T13:51:16.118Z,95181.69
2019-05-10T13:56:15.130Z,95182.53
2019-05-10T14:01:14.849Z,95186.25
2019-05-10T14:06:12.135Z,95184.84
2019-05-10T14:11:09.233Z,95182.00
2019-05-10T14:16:06.469Z,95175.92
2019-05-10T14:21:03.535Z,95183.44
2019-05-10T14:26:00.605Z,95185.30
2019-05-10T14:30:58.929Z,95184.87
2019-05-10T14:36:00.870Z,95180.27
2019-05-10T14:40:55.415Z,95181.02
2019-05-10T14:45:52.412Z,95192.89
2019-05-10T14:50:49.414Z,95193.92
2019-05-10T14:55:49.347Z,95205.11
2019-05-10T15:00:48.276Z,95206.37
2019-05-10T15:05:48.953Z,95211.02
2019-05-10T15:10:45.112Z,95216.05
2019-05-10T15:15:42.828Z,95218.08
2019-05-10T15:20:41.741Z,95220.88
2019-05-10T15:25:55.702Z,95219.25
2019-05-10T15:30:45.764Z,95230.19
2019-05-10T15:35:45.832Z,95231.02
2019-05-10T15:40:44.561Z,95225.28
2019-05-10T15:45:39.066Z,95238.06
2019-05-10T15:50:38.683Z,95234.77
2019-05-10T15:55:35.105Z,95239.38
2019-05-10T16:00:39.368Z,95242.55
2019-05-10T16:05:43.101Z,95247.16
2019-05-10T16:10:38.812Z,95239.48
2019-05-10T16:15:32.924Z,95255.73
2019-05-10T16:20:31.779Z,95259.38
2019-05-10T16:25:32.839Z,95263.83
2019-05-10T16:30:28.011Z,95262.56
2019-05-10T16:35:38.079Z,95275.75
2019-05-10T16:40:24.089Z,95272.62
2019-05-10T16:45:23.146Z,95278.67
2019-05-10T16:50:25.857Z,95283.54
2019-05-10T16:55:21.383Z,95288.73
2019-05-10T17:00:18.641Z,95285.78
2019-05-10T17:05:17.297Z,95300.90
2019-05-10T17:10:14.615Z,95300.55
2019-05-10T17:15:14.062Z,95307.59
2019-05-10T17:20:15.775Z,95319.19
2019-05-10T17:25:13.595Z,95322.51
2019-05-10T17:30:14.678Z,95321.31
2019-05-10T17:35:12.120Z,95330.29
2019-05-10T17:40:12.085Z,95334.77
2019-05-10T17:45:08.993Z,95341.31
2019-05-10T17:50:06.971Z,95342.00
2019-05-10T17:55:10.790Z,95350.24
2019-05-10T18:00:06.871Z,95347.62
2019-05-10T18:05:08.317Z,95348.98
2019-05-10T18:10:06.624Z,95352.42
2019-05-10T18:15:06.374Z,95353.59
2019-05-10T18:20:05.418Z,95364.28
2019-05-10T18:25:02.919Z,95375.42
2019-05-10T18:30:00.134Z,95379.01
2019-05-10T18:34:57.279Z,95381.09
2019-05-10T18:39:54.773Z,95383.34
2019-05-10T18:44:54.121Z,95395.48
2019-05-10T18:49:51.272Z,95396.13
2019-05-10T18:54:48.331Z,95403.83
2019-05-10T18:59:47.092Z,95403.73
2019-05-10T19:04:45.764Z,95414.91
2019-05-10T19:09:43.522Z,95412.79
2019-05-10T19:14:40.623Z,95406.04
2019-05-10T19:19:42.140Z,95411.34
2019-05-10T19:24:39.885Z,95416.12
2019-05-10T19:29:38.843Z,95422.44
2019-05-10T19:34:38.530Z,95422.40
2019-05-10T19:39:37.239Z,95423.48
2019-05-10T19:44:39.746Z,95430.05
2019-05-10T19:49:33.925Z,95435.44
2019-05-10T19:54:31.139Z,95447.25
2019-05-10T19:59:28.506Z,95454.05
2019-05-10T20:04:25.624Z,95441.05
2019-05-10T20:09:23.247Z,95442.23
2019-05-10T20:14:20.368Z,95448.13
2019-05-10T20:19:17.439Z,95449.77
2019-05-10T20:24:14.424Z,95455.59
2019-05-10T20:29:13.543Z,95446.03
2019-05-10T20:34:10.923Z,95455.87
2019-05-10T20:39:08.009Z,95455.52
2019-05-10T20:44:04.999Z,95462.61
2019-05-10T20:49:02.605Z,95468.38
2019-05-10T20:54:00.741Z,95463.36
2019-05-10T20:58:57.863Z,95464.79
2019-05-10T21:03:55.911Z,95465.47
2019-05-10T21:08:54.914Z,95466.05
2019-05-10T21:13:52.111Z,95467.94
2019-05-10T21:18:51.506Z,95465.08
2019-05-10T21:23:48.810Z,95461.12
2019-05-10T21:28:48.919Z,95460.72
2019-05-10T21:33:50.130Z,95462.73
2019-05-10T21:38:47.191Z,95468.60
2019-05-10T21:43:44.632Z,95469.33
2019-05-10T21:48:41.843Z,95473.75
2019-05-10T21:53:38.880Z,95467.12
2019-05-10T21:58:36.047Z,95473.19
2019-05-10T22:03:33.191Z,95469.50
2019-05-10T22:08:30.300Z,95479.99
2019-05-10T22:13:29.255Z,95487.38
2019-05-10T22:18:26.359Z,95493.83
2019-05-10T22:23:25.851Z,95489.14
2019-05-10T22:28:23.045Z,95495.00
2019-05-10T22:33:20.062Z,95492.62
2019-05-10T22:38:17.118Z,95493.61
2019-05-10T22:43:14.192Z,95492.48
2019-05-10T22:48:13.742Z,95497.87
2019-05-10T22:53:10.765Z,95490.66
2019-05-10T22:58:08.265Z,95496.34
2019-05-10T23:03:05.351Z,95499.47
2019-05-10T23:08:02.377Z,95497.90
2019-05-10T23:12:59.478Z,95496.02
2019-05-10T23:17:56.697Z,95504.52
2019-05-10T23:22:53.779Z,95504.33
2019-05-10T23:27:50.878Z,95504.08
2019-05-10T23:32:47.957Z,95508.02
2019-05-10T23:37:46.866Z,95504.53
2019-05-10T23:42:44.793Z,95508.34
2019-05-10T23:47:41.852Z,95505.00
2019-05-10T23:52:39.020Z,95494.91
2019-05-10T23:57:36.593Z,95497.22
